Terminal Aerodrome Forecast
Issued by NWS Jackson, MS

Home | Current Version | Previous Version | Text Only | Print | Product List | Glossary On
Versions: 1 2 3 4 5 6 7 8 9 10 11 12 13
000
FTUS44 KJAN 252320
TAFHBG
TAF
KHBG 252320Z 2600/2624 35006KT P6SM SKC
     FM260200 VRB03KT P6SM BKN120 OVC250
     FM260600 15005KT P6SM BKN080
     FM260800 20006KT P6SM VCSH BKN050
     FM261200 31010KT 5SM -SHRA BKN012
     FM262300 33011KT P6SM BKN050=

USA.gov is the U.S. government's official web portal to all federal, state and local government web resources and services.